OINR  Ramsar  Airport

Iran

Add Bookmark
ICAO OINR
IATA RZR
Type Airport
Status Operational
Latitude
36° 54' 35" N
36.909901
Longitude
50° 40' 46" E
50.679600
Local (DST + 5) UTC (GMT + 4)
Jul 5, 2015 04:40 Jul 5, 2015 00:10
Sunrise-Sunset Local UTC
Begin Civil Twilight 05:21 00:51
Sunrise 05:52 01:22
Sunset 08:31 16:01
End Civil Twilight 09:02 16:32
VFR
VFR
MVFR
MVFR
IFR
IFR
LIFR
LIFR
Unknown
Unavailable

Current Weather

METAR Observed VFR
OINR 042100Z 24004KT 9999 FEW040 SCT090 25/18 Q1015 Sat, Jul 4, 2015 @ 21:00 UTC
(3 Hours, 10 Minutes ago)
Visual Flight Rules
Wind Visibility Clouds Conditions
240° at 4 knots (7 kph) 10 km or more
  • Few at 4,000 ft AGL
  • Scattered at 9,000 ft AGL
  • No significant weather
Temperatures Readings Precipitation
Current Temp
25°C
77°F
Dewpoint
18°C
64°F
Humidity 65%
Altimeter 29.97" Hg
Sea Level Pressure 1,015 mb
None Recorded

Additional weather within a 92.6km radius of OINR

Map ICAO Location
OINN 75km E/SE (111°)
VFR
VFR
MVFR
MVFR
IFR
IFR
LIFR
LIFR
Unknown
Unavailable
-
-

CheckWX.com is intended as a tool to help pilots better visualize weather data. It is not intended as a substitute for an official weather briefing obtained from a Flight Service Station. CheckWX.com does not meet the FAA requirements for an official pre-flight weather briefing. Therefore, it's important that pilots still call and obtain an official FSS pre-flight weather briefing.

© 2007-2015 CheckWX.com
00:10:52 UTC